sensor_id;sensor_type;location;lat;lon;timestamp;pressure;altitude;pressure_sealevel;temperature;humidity
30682;BME280;17439;48.092;11.842;2024-02-23T00:01:05;93599.91;;;9.89;72.44
30682;BME280;17439;48.092;11.842;2024-02-23T00:03:33;93602.63;;;9.73;73.22
30682;BME280;17439;48.092;11.842;2024-02-23T00:06:00;93608.41;;;9.56;72.47
30682;BME280;17439;48.092;11.842;2024-02-23T00:08:27;93606.38;;;9.53;74.13
30682;BME280;17439;48.092;11.842;2024-02-23T00:10:53;93614.34;;;9.46;74.71
30682;BME280;17439;48.092;11.842;2024-02-23T00:13:20;93607.19;;;9.37;75.27
30682;BME280;17439;48.092;11.842;2024-02-23T00:15:47;93608.56;;;9.31;75.41
30682;BME280;17439;48.092;11.842;2024-02-23T00:18:14;93605.31;;;9.25;75.73
30682;BME280;17439;48.092;11.842;2024-02-23T00:20:40;93611.41;;;9.22;76.17
30682;BME280;17439;48.092;11.842;2024-02-23T00:23:07;93613.25;;;9.18;76.04
30682;BME280;17439;48.092;11.842;2024-02-23T00:25:34;93604.34;;;9.18;76.63
30682;BME280;17439;48.092;11.842;2024-02-23T00:28:01;93609.75;;;9.18;76.79
30682;BME280;17439;48.092;11.842;2024-02-23T00:30:27;93613.63;;;9.17;77.16
30682;BME280;17439;48.092;11.842;2024-02-23T00:32:54;93619.72;;;9.14;77.02
30682;BME280;17439;48.092;11.842;2024-02-23T00:35:21;93619.72;;;9.14;77.25
30682;BME280;17439;48.092;11.842;2024-02-23T00:37:48;93621.63;;;9.13;77.14
30682;BME280;17439;48.092;11.842;2024-02-23T00:40:14;93611.50;;;9.10;76.98
30682;BME280;17439;48.092;11.842;2024-02-23T00:42:41;93609.59;;;9.11;77.07
30682;BME280;17439;48.092;11.842;2024-02-23T00:45:08;93617.34;;;9.12;77.05
30682;BME280;17439;48.092;11.842;2024-02-23T00:47:34;93606.09;;;9.10;77.11
30682;BME280;17439;48.092;11.842;2024-02-23T00:50:01;93614.22;;;9.10;77.11
30682;BME280;17439;48.092;11.842;2024-02-23T00:52:28;93597.19;;;9.10;77.28
30682;BME280;17439;48.092;11.842;2024-02-23T00:54:55;93609.59;;;9.11;77.24
30682;BME280;17439;48.092;11.842;2024-02-23T00:57:22;93611.16;;;9.12;77.07
30682;BME280;17439;48.092;11.842;2024-02-23T00:59:48;93611.59;;;9.14;77.16
30682;BME280;17439;48.092;11.842;2024-02-23T01:02:15;93618.13;;;9.13;77.02
30682;BME280;17439;48.092;11.842;2024-02-23T01:04:42;93618.47;;;9.11;76.92
30682;BME280;17439;48.092;11.842;2024-02-23T01:07:09;93620.41;;;9.11;77.08
30682;BME280;17439;48.092;11.842;2024-02-23T01:09:35;93627.38;;;9.12;77.17
30682;BME280;17439;48.092;11.842;2024-02-23T01:12:02;93618.81;;;9.10;76.58
30682;BME280;17439;48.092;11.842;2024-02-23T01:14:29;93622.66;;;9.08;76.67
30682;BME280;17439;48.092;11.842;2024-02-23T01:16:56;93632.69;;;9.08;76.78
30682;BME280;17439;48.092;11.842;2024-02-23T01:19:23;93633.47;;;9.08;76.78
30682;BME280;17439;48.092;11.842;2024-02-23T01:21:49;93630.31;;;9.06;76.79
30682;BME280;17439;48.092;11.842;2024-02-23T01:24:16;93642.72;;;9.07;77.15
30682;BME280;17439;48.092;11.842;2024-02-23T01:26:43;93643.06;;;9.06;76.57
30682;BME280;17439;48.092;11.842;2024-02-23T01:29:10;93644.97;;;9.05;76.73
30682;BME280;17439;48.092;11.842;2024-02-23T01:31:36;93652.63;;;9.03;76.42
30682;BME280;17439;48.092;11.842;2024-02-23T01:34:03;93647.22;;;9.03;76.83
30682;BME280;17439;48.092;11.842;2024-02-23T01:36:30;93641.81;;;9.03;76.68
30682;BME280;17439;48.092;11.842;2024-02-23T01:38:57;93645.66;;;9.02;76.56
30682;BME280;17439;48.092;11.842;2024-02-23T01:41:23;93648.72;;;9.01;76.30
30682;BME280;17439;48.092;11.842;2024-02-23T01:43:50;93651.06;;;9.02;76.71
30682;BME280;17439;48.092;11.842;2024-02-23T01:46:17;93656.47;;;9.02;76.58
30682;BME280;17439;48.092;11.842;2024-02-23T01:48:45;93659.97;;;9.03;76.46
30682;BME280;17439;48.092;11.842;2024-02-23T01:51:12;93654.47;;;8.99;76.73
30682;BME280;17439;48.092;11.842;2024-02-23T01:53:39;93657.16;;;8.99;76.64
30682;BME280;17439;48.092;11.842;2024-02-23T01:56:06;93665.63;;;8.98;76.78
30682;BME280;17439;48.092;11.842;2024-02-23T01:58:35;93661.69;;;8.95;75.76
30682;BME280;17439;48.092;11.842;2024-02-23T02:01:01;93643.09;;;8.94;76.05
30682;BME280;17439;48.092;11.842;2024-02-23T02:03:28;93655.06;;;8.93;76.65
30682;BME280;17439;48.092;11.842;2024-02-23T02:05:56;93655.84;;;8.93;76.74
30682;BME280;17439;48.092;11.842;2024-02-23T02:08:25;93653.91;;;8.94;76.72
30682;BME280;17439;48.092;11.842;2024-02-23T02:10:52;93655.41;;;8.91;76.51
30682;BME280;17439;48.092;11.842;2024-02-23T02:13:18;93653.81;;;8.90;76.61
30682;BME280;17439;48.092;11.842;2024-02-23T02:15:45;93653.81;;;8.90;76.56
30682;BME280;17439;48.092;11.842;2024-02-23T02:18:12;93657.31;;;8.90;76.57
30682;BME280;17439;48.092;11.842;2024-02-23T02:20:40;93650.69;;;8.88;76.20
30682;BME280;17439;48.092;11.842;2024-02-23T02:23:17;93659.13;;;8.86;76.57
30682;BME280;17439;48.092;11.842;2024-02-23T02:25:43;93660.25;;;8.85;76.72
30682;BME280;17439;48.092;11.842;2024-02-23T02:28:10;93659.47;;;8.85;76.91
30682;BME280;17439;48.092;11.842;2024-02-23T02:30:37;93659.03;;;8.83;76.68
30682;BME280;17439;48.092;11.842;2024-02-23T02:33:04;93681.09;;;8.85;76.68
30682;BME280;17439;48.092;11.842;2024-02-23T02:35:31;93683.78;;;8.85;76.60
30682;BME280;17439;48.092;11.842;2024-02-23T02:37:58;93679.84;;;8.82;76.56
30682;BME280;17439;48.092;11.842;2024-02-23T02:40:25;93690.66;;;8.82;76.79
30682;BME280;17439;48.092;11.842;2024-02-23T02:42:51;93690.66;;;8.82;76.56
30682;BME280;17439;48.092;11.842;2024-02-23T02:45:18;93682.13;;;8.80;76.70
30682;BME280;17439;48.092;11.842;2024-02-23T02:47:46;93689.44;;;8.80;76.34
30682;BME280;17439;48.092;11.842;2024-02-23T02:50:13;93694.38;;;8.78;76.38
30682;BME280;17439;48.092;11.842;2024-02-23T02:52:40;93686.75;;;8.80;76.46
30682;BME280;17439;48.092;11.842;2024-02-23T02:55:07;93687.44;;;8.77;76.50
30682;BME280;17439;48.092;11.842;2024-02-23T02:57:34;93700.47;;;8.75;76.38
30682;BME280;17439;48.092;11.842;2024-02-23T03:00:04;93699.25;;;8.72;76.47
30682;BME280;17439;48.092;11.842;2024-02-23T03:02:31;93698.91;;;8.74;76.41
30682;BME280;17439;48.092;11.842;2024-02-23T03:04:58;93707.03;;;8.74;76.33
30682;BME280;17439;48.092;11.842;2024-02-23T03:07:25;93692.69;;;8.73;76.16
30682;BME280;17439;48.092;11.842;2024-02-23T03:09:52;93702.72;;;8.73;76.05
30682;BME280;17439;48.092;11.842;2024-02-23T03:12:18;93690.69;;;8.70;75.47
30682;BME280;17439;48.092;11.842;2024-02-23T03:14:45;93704.19;;;8.70;75.29
30682;BME280;17439;48.092;11.842;2024-02-23T03:17:12;93702.63;;;8.69;75.52
30682;BME280;17439;48.092;11.842;2024-02-23T03:19:39;93695.22;;;8.66;75.33
30682;BME280;17439;48.092;11.842;2024-02-23T03:22:06;93707.13;;;8.65;75.33
30682;BME280;17439;48.092;11.842;2024-02-23T03:24:32;93696.66;;;8.63;75.29
30682;BME280;17439;48.092;11.842;2024-02-23T03:26:59;93702.75;;;8.60;74.93
30682;BME280;17439;48.092;11.842;2024-02-23T03:29:26;93690.72;;;8.58;74.89
30682;BME280;17439;48.092;11.842;2024-02-23T03:31:53;93693.78;;;8.56;75.14
30682;BME280;17439;48.092;11.842;2024-02-23T03:34:20;93697.59;;;8.55;73.95
30682;BME280;17439;48.092;11.842;2024-02-23T03:36:47;93696.34;;;8.52;74.65
30682;BME280;17439;48.092;11.842;2024-02-23T03:39:13;93702.41;;;8.49;74.84
30682;BME280;17439;48.092;11.842;2024-02-23T03:41:40;93711.00;;;8.51;73.89
30682;BME280;17439;48.092;11.842;2024-02-23T03:44:07;93708.88;;;8.45;74.38
30682;BME280;17439;48.092;11.842;2024-02-23T03:46:35;93710.28;;;8.42;74.53
30682;BME280;17439;48.092;11.842;2024-02-23T03:49:03;93710.19;;;8.39;75.01
30682;BME280;17439;48.092;11.842;2024-02-23T03:51:30;93712.41;;;8.36;74.75
30682;BME280;17439;48.092;11.842;2024-02-23T03:53:56;93710.19;;;8.39;74.67
30682;BME280;17439;48.092;11.842;2024-02-23T03:56:23;93709.28;;;8.34;74.90
30682;BME280;17439;48.092;11.842;2024-02-23T03:58:50;93715.34;;;8.31;75.11
30682;BME280;17439;48.092;11.842;2024-02-23T04:01:17;93721.44;;;8.28;75.46
30682;BME280;17439;48.092;11.842;2024-02-23T04:03:44;93723.69;;;8.26;74.89
30682;BME280;17439;48.092;11.842;2024-02-23T04:06:10;93716.38;;;8.27;75.71
30682;BME280;17439;48.092;11.842;2024-02-23T04:08:37;93724.47;;;8.27;75.87
30682;BME280;17439;48.092;11.842;2024-02-23T04:11:04;93717.50;;;8.26;76.03
30682;BME280;17439;48.092;11.842;2024-02-23T04:13:31;93719.53;;;8.29;76.07
30682;BME280;17439;48.092;11.842;2024-02-23T04:15:57;93724.13;;;8.28;75.80
30682;BME280;17439;48.092;11.842;2024-02-23T04:18:24;93737.28;;;8.30;75.85
30682;BME280;17439;48.092;11.842;2024-02-23T04:20:51;93741.56;;;8.31;75.18
30682;BME280;17439;48.092;11.842;2024-02-23T04:23:18;93738.88;;;8.31;75.05
30682;BME280;17439;48.092;11.842;2024-02-23T04:25:44;93740.31;;;8.28;74.91
30682;BME280;17439;48.092;11.842;2024-02-23T04:28:11;93733.38;;;8.27;74.88
30682;BME280;17439;48.092;11.842;2024-02-23T04:30:38;93736.75;;;8.24;74.82
30682;BME280;17439;48.092;11.842;2024-02-23T04:33:04;93734.38;;;8.23;74.35
30682;BME280;17439;48.092;11.842;2024-02-23T04:35:31;93726.16;;;8.19;74.56
30682;BME280;17439;48.092;11.842;2024-02-23T04:37:58;93731.09;;;8.17;74.45
30682;BME280;17439;48.092;11.842;2024-02-23T04:40:25;93735.72;;;8.16;74.53
30682;BME280;17439;48.092;11.842;2024-02-23T04:42:51;93733.38;;;8.15;74.56
30682;BME280;17439;48.092;11.842;2024-02-23T04:45:18;93738.75;;;8.15;74.82
30682;BME280;17439;48.092;11.842;2024-02-23T04:47:45;93737.19;;;8.14;74.95
30682;BME280;17439;48.092;11.842;2024-02-23T04:50:12;93741.78;;;8.13;75.06
30682;BME280;17439;48.092;11.842;2024-02-23T04:52:39;93735.63;;;8.13;75.31
30682;BME280;17439;48.092;11.842;2024-02-23T04:55:06;93742.56;;;8.14;75.30
30682;BME280;17439;48.092;11.842;2024-02-23T04:57:33;93744.50;;;8.13;74.51
30682;BME280;17439;48.092;11.842;2024-02-23T04:59:59;93746.75;;;8.11;74.90
30682;BME280;17439;48.092;11.842;2024-02-23T05:02:26;93752.47;;;8.10;74.90
30682;BME280;17439;48.092;11.842;2024-02-23T05:04:53;93749.31;;;8.08;73.98
30682;BME280;17439;48.092;11.842;2024-02-23T05:07:19;93740.34;;;8.04;73.54
30682;BME280;17439;48.092;11.842;2024-02-23T05:09:46;93744.47;;;8.01;73.69
30682;BME280;17439;48.092;11.842;2024-02-23T05:12:13;93737.06;;;7.98;74.10
30682;BME280;17439;48.092;11.842;2024-02-23T05:14:40;93738.06;;;7.93;73.79
30682;BME280;17439;48.092;11.842;2024-02-23T05:17:06;93749.53;;;7.90;74.00
30682;BME280;17439;48.092;11.842;2024-02-23T05:19:33;93754.03;;;7.86;73.89
30682;BME280;17439;48.092;11.842;2024-02-23T05:22:00;93756.25;;;7.84;74.26
30682;BME280;17439;48.092;11.842;2024-02-23T05:24:27;93756.94;;;7.81;74.35
30682;BME280;17439;48.092;11.842;2024-02-23T05:26:53;93774.56;;;7.78;74.46
30682;BME280;17439;48.092;11.842;2024-02-23T05:29:20;93776.81;;;7.76;74.36
30682;BME280;17439;48.092;11.842;2024-02-23T05:31:49;93780.97;;;7.74;74.04
30682;BME280;17439;48.092;11.842;2024-02-23T05:34:16;93777.00;;;7.71;74.87
30682;BME280;17439;48.092;11.842;2024-02-23T05:36:44;93775.78;;;7.69;74.78
30682;BME280;17439;48.092;11.842;2024-02-23T05:39:11;93759.47;;;7.65;75.14
30682;BME280;17439;48.092;11.842;2024-02-23T05:41:39;93756.75;;;7.65;75.52
30682;BME280;17439;48.092;11.842;2024-02-23T05:44:05;93763.31;;;7.64;75.71
30682;BME280;17439;48.092;11.842;2024-02-23T05:46:33;93758.69;;;7.65;76.02
30682;BME280;17439;48.092;11.842;2024-02-23T05:49:00;93766.44;;;7.66;76.40
30682;BME280;17439;48.092;11.842;2024-02-23T05:51:28;93760.72;;;7.68;76.43
30682;BME280;17439;48.092;11.842;2024-02-23T05:53:55;93766.56;;;7.70;76.67
30682;BME280;17439;48.092;11.842;2024-02-23T05:56:22;93766.69;;;7.73;76.61
30682;BME280;17439;48.092;11.842;2024-02-23T05:58:50;93777.59;;;7.77;76.67
30682;BME280;17439;48.092;11.842;2024-02-23T06:01:18;93769.19;;;7.78;76.54
30682;BME280;17439;48.092;11.842;2024-02-23T06:03:45;93763.44;;;7.80;76.55
30682;BME280;17439;48.092;11.842;2024-02-23T06:06:12;93763.91;;;7.82;76.52
30682;BME280;17439;48.092;11.842;2024-02-23T06:08:39;93761.66;;;7.84;76.34
30682;BME280;17439;48.092;11.842;2024-02-23T06:11:05;93757.50;;;7.87;76.60
30682;BME280;17439;48.092;11.842;2024-02-23T06:13:32;93747.16;;;7.89;76.76
30682;BME280;17439;48.092;11.842;2024-02-23T06:15:59;93750.31;;;7.91;76.68
30682;BME280;17439;48.092;11.842;2024-02-23T06:18:26;93772.34;;;7.93;76.66
30682;BME280;17439;48.092;11.842;2024-02-23T06:20:53;93787.09;;;7.95;76.55
30682;BME280;17439;48.092;11.842;2024-02-23T06:23:19;93787.09;;;7.95;76.38
30682;BME280;17439;48.092;11.842;2024-02-23T06:25:46;93792.94;;;7.97;76.36
30682;BME280;17439;48.092;11.842;2024-02-23T06:28:13;93799.91;;;7.98;76.33
30682;BME280;17439;48.092;11.842;2024-02-23T06:30:39;93804.84;;;7.96;76.02
30682;BME280;17439;48.092;11.842;2024-02-23T06:33:06;93808.81;;;7.99;76.24
30682;BME280;17439;48.092;11.842;2024-02-23T06:35:33;93813.38;;;7.98;75.91
30682;BME280;17439;48.092;11.842;2024-02-23T06:38:00;93808.00;;;7.98;75.87
30682;BME280;17439;48.092;11.842;2024-02-23T06:40:27;93818.47;;;8.00;76.03
30682;BME280;17439;48.092;11.842;2024-02-23T06:43:07;93816.56;;;8.01;76.17
30682;BME280;17439;48.092;11.842;2024-02-23T06:45:33;93809.25;;;8.01;76.00
30682;BME280;17439;48.092;11.842;2024-02-23T06:48:00;93816.56;;;8.01;75.85
30682;BME280;17439;48.092;11.842;2024-02-23T06:50:27;93817.34;;;8.01;75.77
30682;BME280;17439;48.092;11.842;2024-02-23T06:52:53;93811.16;;;8.01;75.78
30682;BME280;17439;48.092;11.842;2024-02-23T06:55:20;93814.31;;;8.03;75.68
30682;BME280;17439;48.092;11.842;2024-02-23T06:57:48;93804.63;;;8.02;75.19
30682;BME280;17439;48.092;11.842;2024-02-23T07:00:15;93812.41;;;8.03;75.55
30682;BME280;17439;48.092;11.842;2024-02-23T07:02:44;93811.28;;;8.04;75.80
30682;BME280;17439;48.092;11.842;2024-02-23T07:05:11;93813.19;;;8.04;75.60
30682;BME280;17439;48.092;11.842;2024-02-23T07:07:38;93811.41;;;8.08;75.67
30682;BME280;17439;48.092;11.842;2024-02-23T07:10:06;93818.72;;;8.07;75.69
30682;BME280;17439;48.092;11.842;2024-02-23T07:12:32;93814.09;;;8.08;76.12
30682;BME280;17439;48.092;11.842;2024-02-23T07:14:59;93813.44;;;8.11;76.31
30682;BME280;17439;48.092;11.842;2024-02-23T07:17:26;93815.47;;;8.14;76.26
30682;BME280;17439;48.092;11.842;2024-02-23T07:19:53;93818.59;;;8.16;75.99
30682;BME280;17439;48.092;11.842;2024-02-23T07:22:20;93832.56;;;8.18;76.29
30682;BME280;17439;48.092;11.842;2024-02-23T07:24:46;93823.34;;;8.19;75.79
30682;BME280;17439;48.092;11.842;2024-02-23T07:27:13;93833.00;;;8.20;75.54
30682;BME280;17439;48.092;11.842;2024-02-23T07:29:40;93833.00;;;8.20;75.33
30682;BME280;17439;48.092;11.842;2024-02-23T07:32:06;93832.25;;;8.20;75.22
30682;BME280;17439;48.092;11.842;2024-02-23T07:34:34;93835.38;;;8.22;75.88
30682;BME280;17439;48.092;11.842;2024-02-23T07:37:00;93826.16;;;8.23;75.78
30682;BME280;17439;48.092;11.842;2024-02-23T07:39:27;93842.03;;;8.24;75.63
30682;BME280;17439;48.092;11.842;2024-02-23T07:41:54;93845.50;;;8.25;76.06
30682;BME280;17439;48.092;11.842;2024-02-23T07:44:21;93847.53;;;8.28;75.93
30682;BME280;17439;48.092;11.842;2024-02-23T07:46:47;93848.31;;;8.28;75.82
30682;BME280;17439;48.092;11.842;2024-02-23T07:49:14;93848.00;;;8.30;75.85
30682;BME280;17439;48.092;11.842;2024-02-23T07:51:41;93849.56;;;8.31;75.64
30682;BME280;17439;48.092;11.842;2024-02-23T07:54:07;93844.97;;;8.31;75.62
30682;BME280;17439;48.092;11.842;2024-02-23T07:56:34;93842.69;;;8.33;75.77
30682;BME280;17439;48.092;11.842;2024-02-23T07:59:01;93838.56;;;8.36;76.06
30682;BME280;17439;48.092;11.842;2024-02-23T08:01:28;93835.06;;;8.35;75.73
30682;BME280;17439;48.092;11.842;2024-02-23T08:03:55;93832.81;;;8.38;75.62
30682;BME280;17439;48.092;11.842;2024-02-23T08:06:22;93828.66;;;8.40;76.06
30682;BME280;17439;48.092;11.842;2024-02-23T08:08:49;93834.50;;;8.42;76.31
30682;BME280;17439;48.092;11.842;2024-02-23T08:11:16;93829.25;;;8.46;76.53
30682;BME280;17439;48.092;11.842;2024-02-23T08:13:43;93815.06;;;8.49;76.83
30682;BME280;17439;48.092;11.842;2024-02-23T08:16:09;93821.38;;;8.53;76.65
30682;BME280;17439;48.092;11.842;2024-02-23T08:18:36;93819.13;;;8.55;76.84
30682;BME280;17439;48.092;11.842;2024-02-23T08:21:03;93805.41;;;8.60;77.15
30682;BME280;17439;48.092;11.842;2024-02-23T08:23:30;93814.06;;;8.66;77.39
30682;BME280;17439;48.092;11.842;2024-02-23T08:25:57;93833.88;;;8.70;77.59
30682;BME280;17439;48.092;11.842;2024-02-23T08:28:24;93820.59;;;8.77;77.76
30682;BME280;17439;48.092;11.842;2024-02-23T08:30:50;93812.25;;;8.82;77.65
30682;BME280;17439;48.092;11.842;2024-02-23T08:33:17;93828.69;;;8.89;77.88
30682;BME280;17439;48.092;11.842;2024-02-23T08:35:44;93826.53;;;8.95;78.08
30682;BME280;17439;48.092;11.842;2024-02-23T08:38:11;93824.06;;;9.02;77.54
30682;BME280;17439;48.092;11.842;2024-02-23T08:40:38;93813.34;;;9.06;76.90
30682;BME280;17439;48.092;11.842;2024-02-23T08:43:04;93806.94;;;9.11;77.01
30682;BME280;17439;48.092;11.842;2024-02-23T08:45:31;93802.44;;;9.15;77.22
30682;BME280;17439;48.092;11.842;2024-02-23T08:47:58;93803.31;;;9.19;76.93
30682;BME280;17439;48.092;11.842;2024-02-23T08:50:25;93800.69;;;9.22;76.71
30682;BME280;17439;48.092;11.842;2024-02-23T08:52:51;93800.81;;;9.26;76.64
30682;BME280;17439;48.092;11.842;2024-02-23T08:55:18;93792.38;;;9.28;75.90
30682;BME280;17439;48.092;11.842;2024-02-23T08:57:45;93824.47;;;9.29;76.18
30682;BME280;17439;48.092;11.842;2024-02-23T09:00:12;93830.66;;;9.30;75.59
30682;BME280;17439;48.092;11.842;2024-02-23T09:02:43;93833.03;;;9.31;75.61
30682;BME280;17439;48.092;11.842;2024-02-23T09:05:10;93837.31;;;9.32;75.49
30682;BME280;17439;48.092;11.842;2024-02-23T09:07:37;93833.47;;;9.33;75.80
30682;BME280;17439;48.092;11.842;2024-02-23T09:10:04;93832.69;;;9.33;76.01
30682;BME280;17439;48.092;11.842;2024-02-23T09:12:31;93843.94;;;9.35;75.86
30682;BME280;17439;48.092;11.842;2024-02-23T09:14:58;93848.56;;;9.34;75.55
30682;BME280;17439;48.092;11.842;2024-02-23T09:17:24;93860.50;;;9.33;74.25
30682;BME280;17439;48.092;11.842;2024-02-23T09:19:51;93868.19;;;9.31;74.08
30682;BME280;17439;48.092;11.842;2024-02-23T09:22:18;93875.03;;;9.29;73.71
30682;BME280;17439;48.092;11.842;2024-02-23T09:24:45;93879.22;;;9.26;73.70
30682;BME280;17439;48.092;11.842;2024-02-23T09:27:11;93881.47;;;9.24;73.54
30682;BME280;17439;48.092;11.842;2024-02-23T09:29:40;93870.91;;;9.19;72.15
30682;BME280;17439;48.092;11.842;2024-02-23T09:32:07;93880.94;;;9.18;73.37
30682;BME280;17439;48.092;11.842;2024-02-23T09:34:34;93878.13;;;9.15;73.50
30682;BME280;17439;48.092;11.842;2024-02-23T09:37:01;93881.50;;;9.12;72.75
30682;BME280;17439;48.092;11.842;2024-02-23T09:39:27;93893.00;;;9.08;73.09
30682;BME280;17439;48.092;11.842;2024-02-23T09:41:54;93900.63;;;9.06;73.50
30682;BME280;17439;48.092;11.842;2024-02-23T09:44:21;93891.31;;;9.04;72.81
30682;BME280;17439;48.092;11.842;2024-02-23T09:46:49;93884.66;;;9.01;73.59
30682;BME280;17439;48.092;11.842;2024-02-23T09:49:18;93895.03;;;8.99;73.87
30682;BME280;17439;48.092;11.842;2024-02-23T09:51:45;93900.66;;;8.94;73.55
30682;BME280;17439;48.092;11.842;2024-02-23T09:54:12;93899.84;;;8.94;73.82
30682;BME280;17439;48.092;11.842;2024-02-23T09:56:40;93900.88;;;8.89;73.72
30682;BME280;17439;48.092;11.842;2024-02-23T09:59:07;93896.84;;;8.83;73.61
30682;BME280;17439;48.092;11.842;2024-02-23T10:01:34;93887.81;;;8.79;73.33
30682;BME280;17439;48.092;11.842;2024-02-23T10:04:01;93897.25;;;8.73;72.47
30682;BME280;17439;48.092;11.842;2024-02-23T10:06:28;93904.00;;;8.66;72.04
30682;BME280;17439;48.092;11.842;2024-02-23T10:08:54;93912.44;;;8.65;72.70
30682;BME280;17439;48.092;11.842;2024-02-23T10:11:22;93909.63;;;8.61;71.97
30682;BME280;17439;48.092;11.842;2024-02-23T10:13:50;93914.13;;;8.57;72.12
30682;BME280;17439;48.092;11.842;2024-02-23T10:16:17;93913.66;;;8.55;72.51
30682;BME280;17439;48.092;11.842;2024-02-23T10:18:43;93912.88;;;8.55;72.99
30682;BME280;17439;48.092;11.842;2024-02-23T10:21:10;93910.19;;;8.55;73.59
30682;BME280;17439;48.092;11.842;2024-02-23T10:23:37;93907.81;;;8.53;73.15
30682;BME280;17439;48.092;11.842;2024-02-23T10:26:06;93905.13;;;8.53;73.22
30682;BME280;17439;48.092;11.842;2024-02-23T10:28:34;93907.50;;;8.55;73.06
30682;BME280;17439;48.092;11.842;2024-02-23T10:31:02;93901.41;;;8.58;74.06
30682;BME280;17439;48.092;11.842;2024-02-23T10:33:29;93899.94;;;8.60;74.73
30682;BME280;17439;48.092;11.842;2024-02-23T10:35:57;93899.59;;;8.62;74.64
30682;BME280;17439;48.092;11.842;2024-02-23T10:38:24;93905.47;;;8.64;74.25
30682;BME280;17439;48.092;11.842;2024-02-23T10:40:55;93904.78;;;8.67;73.04
30682;BME280;17439;48.092;11.842;2024-02-23T10:43:30;93901.75;;;8.68;70.17
30682;BME280;17439;48.092;11.842;2024-02-23T10:45:59;93902.66;;;8.73;73.80
30682;BME280;17439;48.092;11.842;2024-02-23T10:48:27;93908.84;;;8.73;74.16
30682;BME280;17439;48.092;11.842;2024-02-23T10:50:57;93903.34;;;8.69;71.16
30682;BME280;17439;48.092;11.842;2024-02-23T10:53:24;93901.31;;;8.79;74.99
30682;BME280;17439;48.092;11.842;2024-02-23T10:55:56;93897.94;;;8.82;72.23
30682;BME280;17439;48.092;11.842;2024-02-23T10:58:23;93903.47;;;8.85;74.72
30682;BME280;17439;48.092;11.842;2024-02-23T11:00:50;93897.28;;;8.85;72.52
30682;BME280;17439;48.092;11.842;2024-02-23T11:03:18;93899.97;;;8.85;72.63
30682;BME280;17439;48.092;11.842;2024-02-23T11:05:48;93900.75;;;8.85;71.40
30682;BME280;17439;48.092;11.842;2024-02-23T11:08:19;93904.72;;;8.88;71.49
30682;BME280;17439;48.092;11.842;2024-02-23T11:10:50;93905.16;;;8.90;72.21
30682;BME280;17439;48.092;11.842;2024-02-23T11:13:16;93895.13;;;8.90;74.11
30682;BME280;17439;48.092;11.842;2024-02-23T11:15:44;93897.50;;;8.92;74.12
30682;BME280;17439;48.092;11.842;2024-02-23T11:18:27;93873.97;;;8.93;70.38
30682;BME280;17439;48.092;11.842;2024-02-23T11:20:55;93884.09;;;8.96;73.78
30682;BME280;17439;48.092;11.842;2024-02-23T11:23:22;93881.41;;;8.96;74.01
30682;BME280;17439;48.092;11.842;2024-02-23T11:26:19;93886.81;;;8.96;68.15
30682;BME280;17439;48.092;11.842;2024-02-23T11:28:52;93877.66;;;9.00;71.32
30682;BME280;17439;48.092;11.842;2024-02-23T11:31:20;93866.16;;;9.03;73.63
30682;BME280;17439;48.092;11.842;2024-02-23T11:33:52;93865.06;;;9.04;71.87
30682;BME280;17439;48.092;11.842;2024-02-23T11:36:31;93870.47;;;9.04;68.93
30682;BME280;17439;48.092;11.842;2024-02-23T11:39:00;93875.75;;;9.01;72.15
30682;BME280;17439;48.092;11.842;2024-02-23T11:41:28;93871.47;;;9.00;72.71
30682;BME280;17439;48.092;11.842;2024-02-23T11:43:56;93871.38;;;8.96;72.05
30682;BME280;17439;48.092;11.842;2024-02-23T11:46:22;93876.34;;;8.94;71.60
30682;BME280;17439;48.092;11.842;2024-02-23T11:48:49;93878.38;;;8.97;72.44
30682;BME280;17439;48.092;11.842;2024-02-23T11:51:16;93869.44;;;8.97;73.60
30682;BME280;17439;48.092;11.842;2024-02-23T11:53:43;93887.59;;;8.96;72.92
30682;BME280;17439;48.092;11.842;2024-02-23T11:56:10;93889.97;;;8.98;72.69
30682;BME280;17439;48.092;11.842;2024-02-23T11:58:37;93880.38;;;9.00;73.36
30682;BME280;17439;48.092;11.842;2024-02-23T12:01:03;93889.38;;;9.04;73.81
30682;BME280;17439;48.092;11.842;2024-02-23T12:03:31;93881.28;;;9.04;73.70
30682;BME280;17439;48.092;11.842;2024-02-23T12:05:58;93885.22;;;9.07;72.80
30682;BME280;17439;48.092;11.842;2024-02-23T12:08:26;93887.59;;;9.08;73.41
30682;BME280;17439;48.092;11.842;2024-02-23T12:10:56;93880.25;;;9.09;69.48
30682;BME280;17439;48.092;11.842;2024-02-23T12:13:23;93882.28;;;9.12;73.13
30682;BME280;17439;48.092;11.842;2024-02-23T12:15:52;93874.19;;;9.12;68.73
30682;BME280;17439;48.092;11.842;2024-02-23T12:18:23;93879.16;;;9.10;63.51
30682;BME280;17439;48.092;11.842;2024-02-23T12:20:50;93876.53;;;9.14;71.82
30682;BME280;17439;48.092;11.842;2024-02-23T12:23:17;93877.78;;;9.16;72.70
30682;BME280;17439;48.092;11.842;2024-02-23T12:25:54;93891.31;;;9.16;68.54
30682;BME280;17439;48.092;11.842;2024-02-23T12:28:23;93880.59;;;9.20;72.18
30682;BME280;17439;48.092;11.842;2024-02-23T12:31:03;93871.34;;;9.21;68.20
30682;BME280;17439;48.092;11.842;2024-02-23T12:33:37;93867.50;;;9.22;69.80
30682;BME280;17439;48.092;11.842;2024-02-23T12:36:04;93864.91;;;9.25;71.96
30682;BME280;17439;48.092;11.842;2024-02-23T12:38:31;93854.44;;;9.24;71.75
30682;BME280;17439;48.092;11.842;2024-02-23T12:41:02;93842.84;;;9.23;69.24
30682;BME280;17439;48.092;11.842;2024-02-23T12:43:29;93842.50;;;9.25;72.04
30682;BME280;17439;48.092;11.842;2024-02-23T12:45:56;93847.91;;;9.25;71.15
30682;BME280;17439;48.092;11.842;2024-02-23T12:48:23;93853.31;;;9.25;72.15
30682;BME280;17439;48.092;11.842;2024-02-23T12:50:51;93848.69;;;9.25;71.71
30682;BME280;17439;48.092;11.842;2024-02-23T12:53:31;93854.00;;;9.22;62.18
30682;BME280;17439;48.092;11.842;2024-02-23T12:56:06;93858.63;;;9.21;70.00
30682;BME280;17439;48.092;11.842;2024-02-23T12:58:32;93847.69;;;9.18;69.60
30682;BME280;17439;48.092;11.842;2024-02-23T13:00:59;93842.97;;;9.15;69.19